sensor_id;sensor_type;location;lat;lon;timestamp;P1;durP1;ratioP1;P2;durP2;ratioP2
51995;SDS011;38010;53.264;6.592;2023-06-14T02:03:34;0.45;;;0.38;;
51995;SDS011;38010;53.264;6.592;2023-06-14T02:06:03;0.88;;;0.47;;
51995;SDS011;38010;53.264;6.592;2023-06-14T02:08:29;0.75;;;0.28;;
51995;SDS011;38010;53.264;6.592;2023-06-14T02:10:54;0.40;;;0.30;;
51995;SDS011;38010;53.264;6.592;2023-06-14T02:13:20;0.30;;;0.30;;
51995;SDS011;38010;53.264;6.592;2023-06-14T02:15:46;1.13;;;0.30;;
51995;SDS011;38010;53.264;6.592;2023-06-14T02:18:11;0.30;;;0.30;;
51995;SDS011;38010;53.264;6.592;2023-06-14T02:20:37;0.32;;;0.30;;
51995;SDS011;38010;53.264;6.592;2023-06-14T02:23:03;0.30;;;0.30;;
51995;SDS011;38010;53.264;6.592;2023-06-14T02:25:29;0.30;;;0.30;;
51995;SDS011;38010;53.264;6.592;2023-06-14T02:27:54;0.30;;;0.30;;
51995;SDS011;38010;53.264;6.592;2023-06-14T02:30:21;0.68;;;0.35;;
51995;SDS011;38010;53.264;6.592;2023-06-14T02:32:47;0.50;;;0.50;;
51995;SDS011;38010;53.264;6.592;2023-06-14T02:35:13;0.52;;;0.40;;
51995;SDS011;38010;53.264;6.592;2023-06-14T02:37:39;0.55;;;0.45;;
51995;SDS011;38010;53.264;6.592;2023-06-14T02:40:06;0.20;;;0.20;;
51995;SDS011;38010;53.264;6.592;2023-06-14T02:42:34;0.30;;;0.30;;
51995;SDS011;38010;53.264;6.592;2023-06-14T02:45:00;0.35;;;0.28;;
51995;SDS011;38010;53.264;6.592;2023-06-14T02:47:27;0.30;;;0.30;;
51995;SDS011;38010;53.264;6.592;2023-06-14T02:49:53;0.52;;;0.40;;
51995;SDS011;38010;53.264;6.592;2023-06-14T02:52:18;0.30;;;0.30;;
51995;SDS011;38010;53.264;6.592;2023-06-14T02:54:45;0.90;;;0.30;;
51995;SDS011;38010;53.264;6.592;2023-06-14T02:57:12;0.30;;;0.30;;
51995;SDS011;38010;53.264;6.592;2023-06-14T02:59:38;0.30;;;0.30;;
51995;SDS011;38010;53.264;6.592;2023-06-14T03:02:03;0.38;;;0.30;;
51995;SDS011;38010;53.264;6.592;2023-06-14T03:04:30;0.30;;;0.30;;
51995;SDS011;38010;53.264;6.592;2023-06-14T03:07:00;0.30;;;0.30;;
51995;SDS011;38010;53.264;6.592;2023-06-14T03:09:28;0.30;;;0.30;;
51995;SDS011;38010;53.264;6.592;2023-06-14T03:11:53;0.30;;;0.30;;
51995;SDS011;38010;53.264;6.592;2023-06-14T03:14:19;0.38;;;0.30;;
51995;SDS011;38010;53.264;6.592;2023-06-14T03:16:46;0.30;;;0.30;;
51995;SDS011;38010;53.264;6.592;2023-06-14T03:19:12;0.30;;;0.30;;
51995;SDS011;38010;53.264;6.592;2023-06-14T03:21:37;0.40;;;0.40;;
51995;SDS011;38010;53.264;6.592;2023-06-14T03:24:08;0.40;;;0.40;;
51995;SDS011;38010;53.264;6.592;2023-06-14T03:26:34;0.40;;;0.40;;
51995;SDS011;38010;53.264;6.592;2023-06-14T03:29:02;0.40;;;0.38;;
51995;SDS011;38010;53.264;6.592;2023-06-14T03:31:28;0.30;;;0.30;;
51995;SDS011;38010;53.264;6.592;2023-06-14T03:33:57;0.30;;;0.30;;
51995;SDS011;38010;53.264;6.592;2023-06-14T03:36:23;0.30;;;0.30;;
51995;SDS011;38010;53.264;6.592;2023-06-14T03:38:50;0.30;;;0.30;;
51995;SDS011;38010;53.264;6.592;2023-06-14T03:41:16;0.30;;;0.30;;
51995;SDS011;38010;53.264;6.592;2023-06-14T03:43:42;0.30;;;0.30;;
51995;SDS011;38010;53.264;6.592;2023-06-14T03:46:08;1.00;;;0.30;;
51995;SDS011;38010;53.264;6.592;2023-06-14T03:48:33;0.45;;;0.40;;
51995;SDS011;38010;53.264;6.592;2023-06-14T03:50:59;0.30;;;0.30;;
51995;SDS011;38010;53.264;6.592;2023-06-14T03:53:24;0.30;;;0.30;;
51995;SDS011;38010;53.264;6.592;2023-06-14T03:55:52;0.47;;;0.30;;
51995;SDS011;38010;53.264;6.592;2023-06-14T03:58:19;0.35;;;0.35;;
51995;SDS011;38010;53.264;6.592;2023-06-14T04:00:44;0.47;;;0.32;;
51995;SDS011;38010;53.264;6.592;2023-06-14T04:03:10;0.38;;;0.30;;
51995;SDS011;38010;53.264;6.592;2023-06-14T04:05:38;0.30;;;0.30;;
51995;SDS011;38010;53.264;6.592;2023-06-14T04:08:07;0.30;;;0.30;;
51995;SDS011;38010;53.264;6.592;2023-06-14T04:10:34;0.40;;;0.40;;
51995;SDS011;38010;53.264;6.592;2023-06-14T04:13:00;0.40;;;0.40;;
51995;SDS011;38010;53.264;6.592;2023-06-14T04:15:26;0.95;;;0.60;;
51995;SDS011;38010;53.264;6.592;2023-06-14T04:17:53;0.95;;;0.45;;
51995;SDS011;38010;53.264;6.592;2023-06-14T04:20:22;0.30;;;0.30;;
51995;SDS011;38010;53.264;6.592;2023-06-14T04:22:50;0.47;;;0.32;;
51995;SDS011;38010;53.264;6.592;2023-06-14T04:25:16;0.40;;;0.40;;
51995;SDS011;38010;53.264;6.592;2023-06-14T04:27:42;0.35;;;0.30;;
51995;SDS011;38010;53.264;6.592;2023-06-14T04:30:08;0.50;;;0.30;;
51995;SDS011;38010;53.264;6.592;2023-06-14T04:32:34;0.43;;;0.40;;
51995;SDS011;38010;53.264;6.592;2023-06-14T04:35:03;0.65;;;0.40;;
51995;SDS011;38010;53.264;6.592;2023-06-14T04:37:30;0.65;;;0.30;;
51995;SDS011;38010;53.264;6.592;2023-06-14T04:39:56;0.40;;;0.40;;
51995;SDS011;38010;53.264;6.592;2023-06-14T04:42:22;0.40;;;0.40;;
51995;SDS011;38010;53.264;6.592;2023-06-14T04:44:50;1.85;;;0.60;;
51995;SDS011;38010;53.264;6.592;2023-06-14T04:47:19;2.17;;;0.55;;
51995;SDS011;38010;53.264;6.592;2023-06-14T04:49:46;3.28;;;0.50;;
51995;SDS011;38010;53.264;6.592;2023-06-14T04:52:12;1.42;;;0.50;;
51995;SDS011;38010;53.264;6.592;2023-06-14T04:54:38;2.00;;;0.50;;
51995;SDS011;38010;53.264;6.592;2023-06-14T04:57:08;1.48;;;0.50;;
51995;SDS011;38010;53.264;6.592;2023-06-14T04:59:39;2.58;;;0.40;;
51995;SDS011;38010;53.264;6.592;2023-06-14T05:02:05;0.80;;;0.50;;
51995;SDS011;38010;53.264;6.592;2023-06-14T05:04:32;1.67;;;0.40;;
51995;SDS011;38010;53.264;6.592;2023-06-14T05:06:58;0.90;;;0.43;;
51995;SDS011;38010;53.264;6.592;2023-06-14T05:09:24;0.32;;;0.30;;
51995;SDS011;38010;53.264;6.592;2023-06-14T05:11:50;0.50;;;0.40;;
51995;SDS011;38010;53.264;6.592;2023-06-14T05:14:16;0.68;;;0.50;;
51995;SDS011;38010;53.264;6.592;2023-06-14T05:16:42;1.55;;;0.50;;
51995;SDS011;38010;53.264;6.592;2023-06-14T05:19:10;1.80;;;0.40;;
51995;SDS011;38010;53.264;6.592;2023-06-14T05:21:36;0.35;;;0.30;;
51995;SDS011;38010;53.264;6.592;2023-06-14T05:24:02;1.35;;;0.50;;
51995;SDS011;38010;53.264;6.592;2023-06-14T05:26:28;0.45;;;0.40;;
51995;SDS011;38010;53.264;6.592;2023-06-14T05:28:55;0.82;;;0.40;;
51995;SDS011;38010;53.264;6.592;2023-06-14T05:31:26;2.15;;;0.70;;
51995;SDS011;38010;53.264;6.592;2023-06-14T05:33:53;1.13;;;0.60;;
51995;SDS011;38010;53.264;6.592;2023-06-14T05:36:20;0.52;;;0.50;;
51995;SDS011;38010;53.264;6.592;2023-06-14T05:38:49;0.75;;;0.43;;
51995;SDS011;38010;53.264;6.592;2023-06-14T05:41:16;0.35;;;0.30;;
51995;SDS011;38010;53.264;6.592;2023-06-14T05:43:42;1.77;;;0.70;;
51995;SDS011;38010;53.264;6.592;2023-06-14T05:46:07;0.68;;;0.40;;
51995;SDS011;38010;53.264;6.592;2023-06-14T05:48:33;1.15;;;0.57;;
51995;SDS011;38010;53.264;6.592;2023-06-14T05:50:59;0.68;;;0.55;;
51995;SDS011;38010;53.264;6.592;2023-06-14T05:53:25;0.70;;;0.50;;
51995;SDS011;38010;53.264;6.592;2023-06-14T05:55:50;0.68;;;0.40;;
51995;SDS011;38010;53.264;6.592;2023-06-14T05:58:20;2.47;;;0.60;;
51995;SDS011;38010;53.264;6.592;2023-06-14T06:00:47;0.73;;;0.50;;
51995;SDS011;38010;53.264;6.592;2023-06-14T06:03:12;1.23;;;0.70;;
51995;SDS011;38010;53.264;6.592;2023-06-14T06:05:38;0.82;;;0.47;;
51995;SDS011;38010;53.264;6.592;2023-06-14T06:08:04;2.08;;;0.60;;
51995;SDS011;38010;53.264;6.592;2023-06-14T06:10:30;2.05;;;0.80;;
51995;SDS011;38010;53.264;6.592;2023-06-14T06:12:56;3.47;;;0.63;;
51995;SDS011;38010;53.264;6.592;2023-06-14T06:15:22;1.05;;;0.63;;
51995;SDS011;38010;53.264;6.592;2023-06-14T06:17:47;1.70;;;0.50;;
51995;SDS011;38010;53.264;6.592;2023-06-14T06:20:13;1.55;;;0.70;;
51995;SDS011;38010;53.264;6.592;2023-06-14T06:22:39;0.98;;;0.50;;
51995;SDS011;38010;53.264;6.592;2023-06-14T06:25:05;0.63;;;0.45;;
51995;SDS011;38010;53.264;6.592;2023-06-14T06:27:31;3.03;;;0.68;;
51995;SDS011;38010;53.264;6.592;2023-06-14T06:29:57;2.08;;;0.60;;
51995;SDS011;38010;53.264;6.592;2023-06-14T06:32:23;3.33;;;0.70;;
51995;SDS011;38010;53.264;6.592;2023-06-14T06:34:49;5.30;;;2.78;;
51995;SDS011;38010;53.264;6.592;2023-06-14T06:37:15;12.50;;;5.32;;
51995;SDS011;38010;53.264;6.592;2023-06-14T06:39:41;12.98;;;6.35;;
51995;SDS011;38010;53.264;6.592;2023-06-14T06:42:07;14.27;;;7.07;;
51995;SDS011;38010;53.264;6.592;2023-06-14T06:44:33;12.80;;;7.47;;
51995;SDS011;38010;53.264;6.592;2023-06-14T06:46:59;14.45;;;6.53;;
51995;SDS011;38010;53.264;6.592;2023-06-14T06:49:25;15.10;;;7.13;;
51995;SDS011;38010;53.264;6.592;2023-06-14T06:54:27;12.73;;;7.50;;
51995;SDS011;38010;53.264;6.592;2023-06-14T06:56:53;11.13;;;7.05;;
51995;SDS011;38010;53.264;6.592;2023-06-14T06:59:19;9.25;;;6.07;;
51995;SDS011;38010;53.264;6.592;2023-06-14T07:01:46;13.88;;;6.65;;
51995;SDS011;38010;53.264;6.592;2023-06-14T07:04:11;10.18;;;6.63;;
51995;SDS011;38010;53.264;6.592;2023-06-14T07:06:38;9.77;;;5.88;;
51995;SDS011;38010;53.264;6.592;2023-06-14T07:09:03;9.13;;;5.22;;
51995;SDS011;38010;53.264;6.592;2023-06-14T07:11:33;9.75;;;5.55;;
51995;SDS011;38010;53.264;6.592;2023-06-14T07:13:59;10.60;;;5.47;;
51995;SDS011;38010;53.264;6.592;2023-06-14T07:16:24;9.10;;;5.60;;
51995;SDS011;38010;53.264;6.592;2023-06-14T07:18:50;9.57;;;4.93;;
51995;SDS011;38010;53.264;6.592;2023-06-14T07:21:17;6.03;;;3.90;;
51995;SDS011;38010;53.264;6.592;2023-06-14T07:23:43;6.78;;;4.22;;
51995;SDS011;38010;53.264;6.592;2023-06-14T07:26:09;5.47;;;3.38;;
51995;SDS011;38010;53.264;6.592;2023-06-14T07:28:34;5.90;;;3.90;;
51995;SDS011;38010;53.264;6.592;2023-06-14T07:31:01;4.43;;;2.85;;
51995;SDS011;38010;53.264;6.592;2023-06-14T07:33:28;5.32;;;3.15;;
51995;SDS011;38010;53.264;6.592;2023-06-14T07:35:53;7.07;;;3.28;;
51995;SDS011;38010;53.264;6.592;2023-06-14T07:38:19;5.72;;;2.85;;
51995;SDS011;38010;53.264;6.592;2023-06-14T07:40:45;4.00;;;2.85;;
51995;SDS011;38010;53.264;6.592;2023-06-14T07:43:11;5.32;;;2.97;;
51995;SDS011;38010;53.264;6.592;2023-06-14T07:45:37;4.30;;;2.63;;
51995;SDS011;38010;53.264;6.592;2023-06-14T07:48:03;4.97;;;2.85;;
51995;SDS011;38010;53.264;6.592;2023-06-14T07:50:29;4.75;;;3.00;;
51995;SDS011;38010;53.264;6.592;2023-06-14T07:52:55;2.83;;;1.90;;
51995;SDS011;38010;53.264;6.592;2023-06-14T07:55:21;3.92;;;2.20;;
51995;SDS011;38010;53.264;6.592;2023-06-14T07:57:47;4.03;;;2.42;;
51995;SDS011;38010;53.264;6.592;2023-06-14T08:00:13;3.58;;;2.42;;
51995;SDS011;38010;53.264;6.592;2023-06-14T08:02:41;3.15;;;1.90;;
51995;SDS011;38010;53.264;6.592;2023-06-14T08:05:09;3.05;;;2.17;;
51995;SDS011;38010;53.264;6.592;2023-06-14T08:07:35;2.80;;;2.00;;
51995;SDS011;38010;53.264;6.592;2023-06-14T08:10:02;3.00;;;1.40;;
51995;SDS011;38010;53.264;6.592;2023-06-14T08:12:28;3.13;;;2.10;;
51995;SDS011;38010;53.264;6.592;2023-06-14T08:14:54;3.17;;;2.00;;
51995;SDS011;38010;53.264;6.592;2023-06-14T08:17:19;2.00;;;1.40;;
51995;SDS011;38010;53.264;6.592;2023-06-14T08:19:45;2.85;;;1.90;;
51995;SDS011;38010;53.264;6.592;2023-06-14T08:22:11;2.47;;;1.65;;
51995;SDS011;38010;53.264;6.592;2023-06-14T08:24:38;3.03;;;2.10;;
51995;SDS011;38010;53.264;6.592;2023-06-14T08:27:05;2.75;;;1.80;;
51995;SDS011;38010;53.264;6.592;2023-06-14T08:29:31;2.47;;;1.75;;
51995;SDS011;38010;53.264;6.592;2023-06-14T08:31:57;3.22;;;2.05;;
51995;SDS011;38010;53.264;6.592;2023-06-14T08:34:23;2.40;;;1.63;;
51995;SDS011;38010;53.264;6.592;2023-06-14T08:36:52;2.75;;;1.63;;
51995;SDS011;38010;53.264;6.592;2023-06-14T08:39:17;3.25;;;1.80;;
51995;SDS011;38010;53.264;6.592;2023-06-14T08:41:46;2.63;;;1.58;;
51995;SDS011;38010;53.264;6.592;2023-06-14T08:44:16;2.17;;;1.50;;
51995;SDS011;38010;53.264;6.592;2023-06-14T08:46:42;2.80;;;1.40;;
51995;SDS011;38010;53.264;6.592;2023-06-14T08:49:09;2.53;;;1.67;;
51995;SDS011;38010;53.264;6.592;2023-06-14T08:51:37;1.70;;;1.33;;
51995;SDS011;38010;53.264;6.592;2023-06-14T08:54:05;2.30;;;1.45;;
51995;SDS011;38010;53.264;6.592;2023-06-14T08:56:32;2.60;;;1.33;;
51995;SDS011;38010;53.264;6.592;2023-06-14T08:58:59;2.05;;;1.23;;
51995;SDS011;38010;53.264;6.592;2023-06-14T09:01:29;1.75;;;1.40;;
51995;SDS011;38010;53.264;6.592;2023-06-14T09:04:01;1.70;;;1.27;;
51995;SDS011;38010;53.264;6.592;2023-06-14T09:06:28;1.92;;;1.30;;
51995;SDS011;38010;53.264;6.592;2023-06-14T09:08:55;1.75;;;1.10;;
51995;SDS011;38010;53.264;6.592;2023-06-14T09:11:23;2.55;;;1.40;;
51995;SDS011;38010;53.264;6.592;2023-06-14T09:13:50;1.35;;;1.02;;
51995;SDS011;38010;53.264;6.592;2023-06-14T09:16:16;1.35;;;0.90;;
51995;SDS011;38010;53.264;6.592;2023-06-14T09:18:44;1.60;;;1.23;;
51995;SDS011;38010;53.264;6.592;2023-06-14T09:21:13;1.50;;;1.15;;
51995;SDS011;38010;53.264;6.592;2023-06-14T09:23:40;2.00;;;1.10;;
51995;SDS011;38010;53.264;6.592;2023-06-14T09:26:08;1.88;;;1.00;;
51995;SDS011;38010;53.264;6.592;2023-06-14T09:28:44;1.00;;;0.90;;
51995;SDS011;38010;53.264;6.592;2023-06-14T09:31:15;1.00;;;0.85;;
51995;SDS011;38010;53.264;6.592;2023-06-14T09:33:43;1.35;;;0.80;;
51995;SDS011;38010;53.264;6.592;2023-06-14T09:36:24;1.10;;;0.75;;
51995;SDS011;38010;53.264;6.592;2023-06-14T09:38:57;1.30;;;0.80;;
51995;SDS011;38010;53.264;6.592;2023-06-14T09:41:32;1.23;;;0.75;;
51995;SDS011;38010;53.264;6.592;2023-06-14T09:44:01;1.30;;;0.85;;
51995;SDS011;38010;53.264;6.592;2023-06-14T09:46:31;1.45;;;1.20;;
51995;SDS011;38010;53.264;6.592;2023-06-14T09:48:58;1.30;;;0.75;;
51995;SDS011;38010;53.264;6.592;2023-06-14T09:51:24;0.85;;;0.75;;
51995;SDS011;38010;53.264;6.592;2023-06-14T09:53:51;1.50;;;0.80;;
51995;SDS011;38010;53.264;6.592;2023-06-14T09:56:22;0.80;;;0.68;;
51995;SDS011;38010;53.264;6.592;2023-06-14T09:58:49;1.27;;;0.80;;
51995;SDS011;38010;53.264;6.592;2023-06-14T10:01:24;2.03;;;0.80;;
51995;SDS011;38010;53.264;6.592;2023-06-14T10:03:58;1.02;;;0.80;;
51995;SDS011;38010;53.264;6.592;2023-06-14T10:06:28;0.68;;;0.68;;
51995;SDS011;38010;53.264;6.592;2023-06-14T10:08:59;1.10;;;0.80;;
51995;SDS011;38010;53.264;6.592;2023-06-14T10:11:25;0.63;;;0.60;;
51995;SDS011;38010;53.264;6.592;2023-06-14T10:13:53;1.10;;;0.85;;
51995;SDS011;38010;53.264;6.592;2023-06-14T10:16:23;1.00;;;0.60;;
51995;SDS011;38010;53.264;6.592;2023-06-14T10:19:01;0.73;;;0.60;;
51995;SDS011;38010;53.264;6.592;2023-06-14T10:24:37;1.77;;;0.80;;
51995;SDS011;38010;53.264;6.592;2023-06-14T10:27:06;1.05;;;0.60;;
51995;SDS011;38010;53.264;6.592;2023-06-14T10:32:23;1.55;;;0.70;;
51995;SDS011;38010;53.264;6.592;2023-06-14T10:34:56;2.42;;;1.02;;
51995;SDS011;38010;53.264;6.592;2023-06-14T10:37:23;0.70;;;0.70;;
51995;SDS011;38010;53.264;6.592;2023-06-14T10:39:50;1.15;;;0.63;;
51995;SDS011;38010;53.264;6.592;2023-06-14T10:42:16;0.60;;;0.50;;
51995;SDS011;38010;53.264;6.592;2023-06-14T10:44:43;0.68;;;0.60;;
51995;SDS011;38010;53.264;6.592;2023-06-14T10:47:32;0.63;;;0.60;;
51995;SDS011;38010;53.264;6.592;2023-06-14T10:52:33;0.68;;;0.60;;
51995;SDS011;38010;53.264;6.592;2023-06-14T10:55:07;0.75;;;0.63;;
51995;SDS011;38010;53.264;6.592;2023-06-14T11:00:11;1.10;;;0.70;;
51995;SDS011;38010;53.264;6.592;2023-06-14T11:03:07;0.60;;;0.60;;
51995;SDS011;38010;53.264;6.592;2023-06-14T11:05:54;0.60;;;0.60;;
51995;SDS011;38010;53.264;6.592;2023-06-14T11:11:15;0.88;;;0.63;;
51995;SDS011;38010;53.264;6.592;2023-06-14T11:13:43;0.40;;;0.40;;
51995;SDS011;38010;53.264;6.592;2023-06-14T11:16:14;0.50;;;0.50;;
51995;SDS011;38010;53.264;6.592;2023-06-14T11:18:41;0.63;;;0.50;;
51995;SDS011;38010;53.264;6.592;2023-06-14T11:21:07;0.50;;;0.50;;
51995;SDS011;38010;53.264;6.592;2023-06-14T11:23:34;0.60;;;0.50;;
51995;SDS011;38010;53.264;6.592;2023-06-14T11:26:00;0.65;;;0.52;;
51995;SDS011;38010;53.264;6.592;2023-06-14T11:28:36;0.40;;;0.40;;
51995;SDS011;38010;53.264;6.592;2023-06-14T11:31:05;1.02;;;0.57;;
51995;SDS011;38010;53.264;6.592;2023-06-14T11:33:31;1.15;;;0.50;;
51995;SDS011;38010;53.264;6.592;2023-06-14T11:35:57;0.82;;;0.60;;
51995;SDS011;38010;53.264;6.592;2023-06-14T11:38:23;0.47;;;0.43;;
51995;SDS011;38010;53.264;6.592;2023-06-14T11:40:50;0.60;;;0.40;;
51995;SDS011;38010;53.264;6.592;2023-06-14T11:43:15;0.70;;;0.50;;
51995;SDS011;38010;53.264;6.592;2023-06-14T11:45:42;0.40;;;0.40;;
51995;SDS011;38010;53.264;6.592;2023-06-14T11:48:08;0.68;;;0.45;;
51995;SDS011;38010;53.264;6.592;2023-06-14T11:50:33;0.40;;;0.40;;
51995;SDS011;38010;53.264;6.592;2023-06-14T11:53:03;0.73;;;0.45;;
51995;SDS011;38010;53.264;6.592;2023-06-14T11:55:35;0.47;;;0.43;;
51995;SDS011;38010;53.264;6.592;2023-06-14T11:58:05;0.43;;;0.43;;
51995;SDS011;38010;53.264;6.592;2023-06-14T12:00:31;0.50;;;0.50;;
51995;SDS011;38010;53.264;6.592;2023-06-14T12:02:57;1.35;;;0.63;;
51995;SDS011;38010;53.264;6.592;2023-06-14T12:05:24;0.90;;;0.50;;
51995;SDS011;38010;53.264;6.592;2023-06-14T12:07:57;0.50;;;0.50;;
51995;SDS011;38010;53.264;6.592;2023-06-14T12:10:28;1.15;;;0.60;;
51995;SDS011;38010;53.264;6.592;2023-06-14T12:12:58;0.55;;;0.50;;
51995;SDS011;38010;53.264;6.592;2023-06-14T12:15:24;0.73;;;0.45;;
51995;SDS011;38010;53.264;6.592;2023-06-14T12:17:53;0.50;;;0.50;;
51995;SDS011;38010;53.264;6.592;2023-06-14T12:20:19;0.40;;;0.40;;
51995;SDS011;38010;53.264;6.592;2023-06-14T12:22:56;0.47;;;0.40;;
51995;SDS011;38010;53.264;6.592;2023-06-14T12:28:06;0.40;;;0.40;;
51995;SDS011;38010;53.264;6.592;2023-06-14T12:30:34;0.40;;;0.40;;
51995;SDS011;38010;53.264;6.592;2023-06-14T12:33:01;0.52;;;0.40;;
51995;SDS011;38010;53.264;6.592;2023-06-14T12:35:27;0.50;;;0.40;;
51995;SDS011;38010;53.264;6.592;2023-06-14T12:37:53;0.35;;;0.30;;
51995;SDS011;38010;53.264;6.592;2023-06-14T12:40:19;0.40;;;0.40;;
51995;SDS011;38010;53.264;6.592;2023-06-14T12:42:45;0.57;;;0.40;;
51995;SDS011;38010;53.264;6.592;2023-06-14T12:45:13;0.52;;;0.40;;
51995;SDS011;38010;53.264;6.592;2023-06-14T12:47:40;0.52;;;0.40;;
51995;SDS011;38010;53.264;6.592;2023-06-14T12:50:06;0.40;;;0.40;;
51995;SDS011;38010;53.264;6.592;2023-06-14T12:52:32;0.50;;;0.40;;
51995;SDS011;38010;53.264;6.592;2023-06-14T12:55:02;0.45;;;0.40;;
51995;SDS011;38010;53.264;6.592;2023-06-14T12:57:29;0.77;;;0.30;;
51995;SDS011;38010;53.264;6.592;2023-06-14T12:59:54;1.23;;;0.50;;
51995;SDS011;38010;53.264;6.592;2023-06-14T13:02:20;0.40;;;0.30;;
51995;SDS011;38010;53.264;6.592;2023-06-14T13:04:48;0.32;;;0.32;;
51995;SDS011;38010;53.264;6.592;2023-06-14T13:07:14;0.50;;;0.45;;
51995;SDS011;38010;53.264;6.592;2023-06-14T13:09:40;0.70;;;0.40;;
51995;SDS011;38010;53.264;6.592;2023-06-14T13:12:07;0.40;;;0.40;;
51995;SDS011;38010;53.264;6.592;2023-06-14T13:14:35;1.33;;;0.40;;
51995;SDS011;38010;53.264;6.592;2023-06-14T13:17:01;0.60;;;0.40;;
51995;SDS011;38010;53.264;6.592;2023-06-14T13:19:27;0.40;;;0.40;;
51995;SDS011;38010;53.264;6.592;2023-06-14T13:21:53;0.30;;;0.30;;
51995;SDS011;38010;53.264;6.592;2023-06-14T13:24:19;0.40;;;0.38;;
51995;SDS011;38010;53.264;6.592;2023-06-14T13:26:44;0.30;;;0.30;;
51995;SDS011;38010;53.264;6.592;2023-06-14T13:29:10;0.65;;;0.40;;
51995;SDS011;38010;53.264;6.592;2023-06-14T13:31:36;0.30;;;0.30;;
51995;SDS011;38010;53.264;6.592;2023-06-14T13:34:01;0.50;;;0.40;;
51995;SDS011;38010;53.264;6.592;2023-06-14T13:36:27;0.50;;;0.30;;
51995;SDS011;38010;53.264;6.592;2023-06-14T13:38:55;0.30;;;0.30;;
51995;SDS011;38010;53.264;6.592;2023-06-14T13:41:21;0.38;;;0.38;;
51995;SDS011;38010;53.264;6.592;2023-06-14T13:43:46;0.40;;;0.40;;
51995;SDS011;38010;53.264;6.592;2023-06-14T13:46:12;0.50;;;0.30;;
51995;SDS011;38010;53.264;6.592;2023-06-14T13:48:38;0.70;;;0.50;;
51995;SDS011;38010;53.264;6.592;2023-06-14T13:51:04;0.30;;;0.30;;
51995;SDS011;38010;53.264;6.592;2023-06-14T13:53:30;0.40;;;0.40;;
51995;SDS011;38010;53.264;6.592;2023-06-14T13:55:56;0.28;;;0.28;;
51995;SDS011;38010;53.264;6.592;2023-06-14T13:58:22;0.95;;;0.50;;
51995;SDS011;38010;53.264;6.592;2023-06-14T14:00:49;0.43;;;0.40;;
51995;SDS011;38010;53.264;6.592;2023-06-14T14:03:14;0.40;;;0.40;;
51995;SDS011;38010;53.264;6.592;2023-06-14T14:05:40;0.35;;;0.20;;
51995;SDS011;38010;53.264;6.592;2023-06-14T14:08:06;1.02;;;0.30;;
51995;SDS011;38010;53.264;6.592;2023-06-14T14:10:32;0.50;;;0.40;;
51995;SDS011;38010;53.264;6.592;2023-06-14T14:12:58;0.43;;;0.40;;
51995;SDS011;38010;53.264;6.592;2023-06-14T14:15:24;0.32;;;0.30;;
51995;SDS011;38010;53.264;6.592;2023-06-14T14:17:50;0.40;;;0.40;;
51995;SDS011;38010;53.264;6.592;2023-06-14T14:20:16;0.30;;;0.30;;
51995;SDS011;38010;53.264;6.592;2023-06-14T14:22:42;0.25;;;0.25;;
51995;SDS011;38010;53.264;6.592;2023-06-14T14:25:08;0.80;;;0.30;;
51995;SDS011;38010;53.264;6.592;2023-06-14T14:27:35;0.65;;;0.40;;
51995;SDS011;38010;53.264;6.592;2023-06-14T14:30:02;0.47;;;0.40;;
51995;SDS011;38010;53.264;6.592;2023-06-14T14:32:28;0.45;;;0.43;;
51995;SDS011;38010;53.264;6.592;2023-06-14T14:34:54;0.43;;;0.40;;
51995;SDS011;38010;53.264;6.592;2023-06-14T14:37:20;0.40;;;0.40;;
51995;SDS011;38010;53.264;6.592;2023-06-14T14:39:46;0.57;;;0.30;;
51995;SDS011;38010;53.264;6.592;2023-06-14T14:42:12;0.30;;;0.30;;
51995;SDS011;38010;53.264;6.592;2023-06-14T14:44:38;0.30;;;0.30;;
51995;SDS011;38010;53.264;6.592;2023-06-14T14:47:04;0.30;;;0.30;;
51995;SDS011;38010;53.264;6.592;2023-06-14T14:49:31;0.32;;;0.32;;
51995;SDS011;38010;53.264;6.592;2023-06-14T14:51:57;0.30;;;0.30;;
51995;SDS011;38010;53.264;6.592;2023-06-14T14:54:23;0.30;;;0.30;;
51995;SDS011;38010;53.264;6.592;2023-06-14T14:56:50;0.30;;;0.30;;
51995;SDS011;38010;53.264;6.592;2023-06-14T14:59:15;1.45;;;0.40;;
51995;SDS011;38010;53.264;6.592;2023-06-14T15:01:41;0.30;;;0.30;;
51995;SDS011;38010;53.264;6.592;2023-06-14T15:04:07;1.38;;;0.40;;
51995;SDS011;38010;53.264;6.592;2023-06-14T15:06:32;0.30;;;0.30;;
51995;SDS011;38010;53.264;6.592;2023-06-14T15:09:00;0.40;;;0.40;;
51995;SDS011;38010;53.264;6.592;2023-06-14T15:11:26;0.32;;;0.32;;
51995;SDS011;38010;53.264;6.592;2023-06-14T15:13:52;0.88;;;0.30;;
51995;SDS011;38010;53.264;6.592;2023-06-14T15:16:18;0.32;;;0.32;;
51995;SDS011;38010;53.264;6.592;2023-06-14T15:18:44;0.43;;;0.40;;
51995;SDS011;38010;53.264;6.592;2023-06-14T15:21:09;0.95;;;0.30;;
51995;SDS011;38010;53.264;6.592;2023-06-14T15:23:35;0.30;;;0.30;;
51995;SDS011;38010;53.264;6.592;2023-06-14T15:26:01;0.35;;;0.30;;
51995;SDS011;38010;53.264;6.592;2023-06-14T15:28:27;0.32;;;0.30;;
51995;SDS011;38010;53.264;6.592;2023-06-14T15:30:54;0.30;;;0.30;;
51995;SDS011;38010;53.264;6.592;2023-06-14T15:33:30;0.35;;;0.35;;
51995;SDS011;38010;53.264;6.592;2023-06-14T15:35:56;0.52;;;0.47;;
51995;SDS011;38010;53.264;6.592;2023-06-14T15:38:22;0.40;;;0.40;;
51995;SDS011;38010;53.264;6.592;2023-06-14T15:40:48;0.30;;;0.30;;
51995;SDS011;38010;53.264;6.592;2023-06-14T15:43:13;0.50;;;0.50;;
51995;SDS011;38010;53.264;6.592;2023-06-14T15:45:39;0.40;;;0.40;;
51995;SDS011;38010;53.264;6.592;2023-06-14T15:48:05;0.40;;;0.40;;
51995;SDS011;38010;53.264;6.592;2023-06-14T15:50:31;0.60;;;0.40;;
51995;SDS011;38010;53.264;6.592;2023-06-14T15:52:57;0.52;;;0.43;;
51995;SDS011;38010;53.264;6.592;2023-06-14T15:55:23;0.43;;;0.40;;
51995;SDS011;38010;53.264;6.592;2023-06-14T15:57:48;0.60;;;0.50;;
51995;SDS011;38010;53.264;6.592;2023-06-14T16:00:15;0.63;;;0.50;;
51995;SDS011;38010;53.264;6.592;2023-06-14T16:02:42;0.60;;;0.60;;
51995;SDS011;38010;53.264;6.592;2023-06-14T16:05:07;0.40;;;0.40;;
51995;SDS011;38010;53.264;6.592;2023-06-14T16:07:33;1.13;;;0.50;;
51995;SDS011;38010;53.264;6.592;2023-06-14T16:09:59;0.90;;;0.50;;
51995;SDS011;38010;53.264;6.592;2023-06-14T16:12:25;0.60;;;0.40;;
51995;SDS011;38010;53.264;6.592;2023-06-14T16:14:51;0.50;;;0.50;;
51995;SDS011;38010;53.264;6.592;2023-06-14T16:17:17;0.50;;;0.40;;
51995;SDS011;38010;53.264;6.592;2023-06-14T16:19:42;0.65;;;0.50;;
51995;SDS011;38010;53.264;6.592;2023-06-14T16:22:08;0.57;;;0.50;;
51995;SDS011;38010;53.264;6.592;2023-06-14T16:24:34;1.02;;;0.52;;
51995;SDS011;38010;53.264;6.592;2023-06-14T16:27:00;0.70;;;0.50;;
51995;SDS011;38010;53.264;6.592;2023-06-14T16:29:27;0.40;;;0.40;;
51995;SDS011;38010;53.264;6.592;2023-06-14T16:31:53;0.70;;;0.50;;
51995;SDS011;38010;53.264;6.592;2023-06-14T16:34:18;1.35;;;0.70;;
51995;SDS011;38010;53.264;6.592;2023-06-14T16:36:44;0.65;;;0.50;;
51995;SDS011;38010;53.264;6.592;2023-06-14T16:39:10;0.93;;;0.50;;
51995;SDS011;38010;53.264;6.592;2023-06-14T16:41:37;0.55;;;0.55;;
51995;SDS011;38010;53.264;6.592;2023-06-14T16:44:03;0.70;;;0.60;;
51995;SDS011;38010;53.264;6.592;2023-06-14T16:46:33;0.68;;;0.57;;
51995;SDS011;38010;53.264;6.592;2023-06-14T16:49:00;1.55;;;0.55;;
51995;SDS011;38010;53.264;6.592;2023-06-14T16:51:26;1.02;;;0.70;;
51995;SDS011;38010;53.264;6.592;2023-06-14T16:53:52;0.55;;;0.55;;
51995;SDS011;38010;53.264;6.592;2023-06-14T16:56:22;0.60;;;0.60;;
51995;SDS011;38010;53.264;6.592;2023-06-14T16:58:54;0.50;;;0.50;;
51995;SDS011;38010;53.264;6.592;2023-06-14T17:01:21;0.50;;;0.40;;
51995;SDS011;38010;53.264;6.592;2023-06-14T17:03:47;1.42;;;0.60;;
51995;SDS011;38010;53.264;6.592;2023-06-14T17:06:14;1.92;;;0.50;;
51995;SDS011;38010;53.264;6.592;2023-06-14T17:08:40;0.65;;;0.50;;